Bogra, Bangladesh
Current Conditions -  °F | °C
As of 9:20 PM on Wednesday 22 Oct 2014 (Local Time) from VGHS Reporting Station
Haze Haze  
Wind Chill: 81°   Ceiling: Unl
Heat Index: 83°   Visibility: 2.5mi
Dew Point: 66°   Wind: 0mph
Humidity: 61%   Direction: NA
Pressure: 29.85"   Gusts: NA
Location:  24.84°N, 89.38°E
Report Text: VGHS 221520Z 00000KT 4000 HZ SCT100 27/19 Q1011 NOSIG
Loading
Personal Weather Stations






























Interactive Weather Map
Tropical Storm Tracking
New forecast layout! Learn more

10-Day Weather Forecast

Advertisements
Track Severe Weather on mobile